Time;durP1;ratioP1;P1;durP2;ratioP2;P2;SDS_P1;SDS_P2;PMS_P1;PMS_P2;Temp;Humidity;BMP_temperature;BMP_pressure;BME280_temperature;BME280_humidity;BME280_pressure;Samples;Min_cycle;Max_cycle;Signal;HPM_P1;HPM_P2
2022/08/24 00:01:24;;;;;;;6.00;3.85;;;;;;;21.56;69.49;100943.72;5017551;28;20124;-81
2022/08/24 00:03:51;;;;;;;8.95;4.07;;;;;;;21.65;69.35;100939.75;5016797;28;20138;-81
2022/08/24 00:06:20;;;;;;;7.28;3.80;;;;;;;21.70;69.41;100953.22;5016327;28;20427;-80
2022/08/24 00:08:49;;;;;;;9.18;3.92;;;;;;;21.68;69.84;100952.63;5015509;28;20093;-80
2022/08/24 00:11:16;;;;;;;5.80;3.85;;;;;;;21.64;69.92;100938.13;5014311;28;20081;-80
2022/08/24 00:13:44;;;;;;;5.97;4.07;;;;;;;21.51;70.39;100949.72;5015159;28;20077;-80
2022/08/24 00:16:13;;;;;;;7.40;4.30;;;;;;;21.39;70.82;100951.47;5014486;28;20090;-79
2022/08/24 00:18:40;;;;;;;9.48;3.88;;;;;;;21.30;71.17;100950.13;5014158;28;20100;-80
2022/08/24 00:21:07;;;;;;;6.55;3.72;;;;;;;21.21;70.70;100954.91;5014124;28;20050;-79
2022/08/24 00:23:35;;;;;;;8.07;3.90;;;;;;;21.16;70.68;100946.75;5016569;28;20221;-81
2022/08/24 00:26:03;;;;;;;9.00;4.20;;;;;;;21.12;70.72;100946.38;5030910;28;20554;-81
2022/08/24 00:28:30;;;;;;;7.63;3.97;;;;;;;21.07;70.61;100953.38;5018697;28;20132;-81
2022/08/24 00:30:56;;;;;;;9.00;3.97;;;;;;;21.04;70.82;100937.84;5030769;28;20049;-80
2022/08/24 00:33:25;;;;;;;6.20;3.85;;;;;;;21.04;70.69;100938.66;5026906;28;20053;-79
2022/08/24 00:35:52;;;;;;;6.28;3.60;;;;;;;21.11;70.61;100943.91;5024713;28;20069;-79
2022/08/24 00:38:20;;;;;;;6.55;3.83;;;;;;;21.09;70.54;100951.31;5023538;28;20050;-79
2022/08/24 00:40:49;;;;;;;8.45;4.00;;;;;;;21.08;70.45;100955.81;5024834;28;20042;-80
2022/08/24 00:43:20;;;;;;;5.13;3.90;;;;;;;21.06;70.41;100957.06;5030025;28;20077;-80
2022/08/24 00:45:55;;;;;;;7.95;3.92;;;;;;;21.03;70.54;100962.81;5029144;28;20510;-80
2022/08/24 00:48:27;;;;;;;5.00;3.42;;;;;;;20.97;70.74;100955.69;5022423;28;20054;-81
2022/08/24 00:50:58;;;;;;;6.72;4.38;;;;;;;20.90;70.82;100962.91;5022598;28;20474;-81
2022/08/24 00:53:28;;;;;;;6.75;3.60;;;;;;;20.79;71.28;100954.59;5022473;28;20074;-80
2022/08/24 00:55:57;;;;;;;9.77;4.10;;;;;;;20.72;71.51;100959.16;5021584;28;20102;-80
2022/08/24 00:58:31;;;;;;;5.45;3.83;;;;;;;20.66;71.53;100954.69;5021201;28;20081;-81
2022/08/24 01:01:01;;;;;;;5.63;3.85;;;;;;;20.62;71.76;100958.78;5020549;28;20081;-79
2022/08/24 01:03:31;;;;;;;9.07;4.50;;;;;;;20.70;71.88;100955.88;5019837;28;20046;-80
2022/08/24 01:05:58;;;;;;;6.47;4.20;;;;;;;20.71;71.68;100951.38;5019292;28;20104;-79
2022/08/24 01:08:25;;;;;;;11.63;4.70;;;;;;;20.75;71.64;100953.41;5023128;28;20050;-79
2022/08/24 01:10:55;;;;;;;8.07;4.82;;;;;;;20.85;71.29;100950.25;5020413;28;20077;-79
2022/08/24 01:13:24;;;;;;;8.70;4.55;;;;;;;20.81;71.74;100955.19;5020746;28;20049;-80
2022/08/24 01:15:54;;;;;;;11.50;4.60;;;;;;;20.81;71.91;100949.84;5024329;28;20042;-80
2022/08/24 01:21:17;;;;;;;9.88;5.30;;;;;;;20.82;71.80;100956.81;5030555;28;20072;-81
2022/08/24 01:23:47;;;;;;;7.88;4.47;;;;;;;20.66;72.34;100967.97;5029013;28;20065;-81
2022/08/24 01:26:18;;;;;;;8.32;4.53;;;;;;;20.39;73.39;100969.13;5035054;28;20068;-81
2022/08/24 01:28:48;;;;;;;12.20;4.55;;;;;;;20.34;74.06;100969.75;5037241;28;20038;-82
2022/08/24 01:31:16;;;;;;;8.55;3.90;;;;;;;20.28;74.70;100972.44;5030003;28;20057;-80
2022/08/24 01:33:42;;;;;;;12.02;4.45;;;;;;;20.17;74.94;100969.44;5020790;28;20054;-80
2022/08/24 01:36:18;;;;;;;12.23;4.45;;;;;;;20.20;75.08;100969.00;5019967;28;20536;-80
2022/08/24 01:38:46;;;;;;;11.10;4.47;;;;;;;20.19;75.26;100975.34;5019568;28;20060;-79
2022/08/24 01:41:13;;;;;;;15.45;4.85;;;;;;;20.24;75.27;100971.25;5020019;28;20073;-79
2022/08/24 01:43:40;;;;;;;25.50;5.80;;;;;;;20.14;75.77;100975.16;5020192;28;20060;-79
2022/08/24 01:46:08;;;;;;;25.65;5.43;;;;;;;20.10;76.26;100973.94;5019226;28;20056;-80
2022/08/24 01:48:34;;;;;;;20.38;5.65;;;;;;;20.10;76.33;100973.94;5019019;28;20046;-80
2022/08/24 01:51:01;;;;;;;26.52;5.10;;;;;;;20.02;76.77;100974.16;5045312;23;20058;-80
2022/08/24 01:53:28;;;;;;;20.33;5.13;;;;;;;19.98;77.11;100974.78;5022657;28;20046;-80
2022/08/24 01:55:56;;;;;;;17.40;4.60;;;;;;;19.96;77.44;100979.50;5025885;28;20056;-80
2022/08/24 01:58:23;;;;;;;17.50;4.95;;;;;;;19.98;77.38;100974.78;5024598;28;20042;-80
2022/08/24 02:00:50;;;;;;;14.68;5.30;;;;;;;19.97;77.26;100976.63;5026227;28;20545;-78
2022/08/24 02:03:17;;;;;;;11.23;4.65;;;;;;;19.93;77.34;100986.03;5026789;28;20156;-79
2022/08/24 02:05:43;;;;;;;8.43;4.75;;;;;;;19.87;77.44;100979.72;5026170;28;20133;-80
2022/08/24 02:08:10;;;;;;;9.23;4.80;;;;;;;19.82;77.47;100978.75;5022616;28;20082;-79
2022/08/24 02:10:37;;;;;;;8.65;4.38;;;;;;;19.83;77.38;100983.03;5027776;28;20050;-79
2022/08/24 02:13:05;;;;;;;6.00;4.20;;;;;;;19.81;77.55;100985.06;5027617;28;20049;-81
2022/08/24 02:15:38;;;;;;;6.90;4.38;;;;;;;19.78;77.46;100982.84;5026231;28;20509;-80
2022/08/24 02:18:06;;;;;;;8.98;4.60;;;;;;;19.70;77.72;100983.06;5024715;28;20069;-80
2022/08/24 02:20:32;;;;;;;5.68;4.30;;;;;;;19.64;78.06;100979.38;5023396;28;20073;-80
2022/08/24 02:23:00;;;;;;;8.80;4.50;;;;;;;19.63;77.72;100982.25;5023643;28;20549;-80
2022/08/24 02:25:29;;;;;;;6.50;4.20;;;;;;;19.60;78.01;100980.00;5036189;28;20053;-79
2022/08/24 02:27:56;;;;;;;9.15;4.80;;;;;;;19.55;77.85;100981.44;5022881;28;20054;-80
2022/08/24 02:30:25;;;;;;;8.80;4.43;;;;;;;19.59;78.01;100995.13;5024686;28;20502;-80
2022/08/24 02:32:51;;;;;;;7.78;4.75;;;;;;;19.62;77.78;100991.22;5025191;28;20466;-79
2022/08/24 02:35:18;;;;;;;7.78;4.75;;;;;;;19.61;78.02;100986.94;5025207;28;20041;-80
2022/08/24 02:37:45;;;;;;;6.20;4.55;;;;;;;19.61;78.10;101001.03;5025120;28;20073;-81
2022/08/24 02:40:12;;;;;;;8.38;4.25;;;;;;;19.60;78.31;100998.59;5026894;28;20050;-81
2022/08/24 02:42:39;;;;;;;9.43;4.68;;;;;;;19.54;78.26;100989.59;5026370;28;20080;-80
2022/08/24 02:45:07;;;;;;;8.45;4.93;;;;;;;19.54;78.39;100994.91;5027610;28;20046;-80
2022/08/24 02:47:36;;;;;;;9.70;5.10;;;;;;;19.60;77.90;100987.97;5025977;28;20049;-80
2022/08/24 02:50:05;;;;;;;11.52;5.18;;;;;;;19.52;78.17;100992.47;5028146;28;20053;-80
2022/08/24 02:52:31;;;;;;;11.85;4.78;;;;;;;19.52;78.59;100995.13;5027225;28;20046;-81
2022/08/24 02:54:58;;;;;;;6.85;5.00;;;;;;;19.52;78.63;100989.00;5027321;28;20045;-81
2022/08/24 02:57:25;;;;;;;14.27;4.88;;;;;;;19.51;78.50;100990.00;5024938;28;20056;-80
2022/08/24 02:59:51;;;;;;;9.88;4.75;;;;;;;19.53;78.35;100991.44;5026389;28;20050;-80
2022/08/24 03:02:18;;;;;;;7.32;4.70;;;;;;;19.54;78.70;101000.22;5024918;28;20057;-79
2022/08/24 03:04:46;;;;;;;7.20;4.72;;;;;;;19.46;78.51;100990.59;5026857;28;20049;-80
2022/08/24 03:07:13;;;;;;;11.10;5.03;;;;;;;19.44;78.82;100994.47;5026735;28;20046;-79
2022/08/24 03:09:39;;;;;;;9.15;4.78;;;;;;;19.39;78.94;100995.09;5025739;28;20065;-80
2022/08/24 03:12:07;;;;;;;8.75;4.40;;;;;;;19.33;79.45;100987.97;5025970;28;20075;-80
2022/08/24 03:14:34;;;;;;;9.88;4.50;;;;;;;19.26;79.74;100996.94;5027318;28;20073;-81
2022/08/24 03:17:01;;;;;;;9.18;5.10;;;;;;;19.29;79.51;100997.34;5027238;28;20046;-80
2022/08/24 03:19:28;;;;;;;9.75;4.65;;;;;;;19.34;79.48;100996.75;5027619;28;20118;-80
2022/08/24 03:21:56;;;;;;;8.48;4.82;;;;;;;19.37;79.48;100997.16;5028231;28;20078;-80
2022/08/24 03:24:23;;;;;;;10.25;5.40;;;;;;;19.31;79.80;100997.97;5027755;28;20046;-80
2022/08/24 03:26:50;;;;;;;9.25;5.15;;;;;;;19.28;79.99;100995.72;5027163;28;20046;-80
2022/08/24 03:29:16;;;;;;;8.68;5.20;;;;;;;19.21;80.60;101001.03;5024982;28;20073;-78
2022/08/24 03:31:43;;;;;;;17.20;6.80;;;;;;;19.12;80.59;100996.94;5025398;28;20046;-80
2022/08/24 03:34:12;;;;;;;11.93;6.20;;;;;;;19.06;80.43;100991.63;5026625;28;20046;-80
2022/08/24 03:36:39;;;;;;;10.98;6.22;;;;;;;19.14;80.30;100991.44;5026999;28;20092;-79
2022/08/24 03:39:07;;;;;;;12.23;6.15;;;;;;;19.12;80.56;100990.81;5025543;28;20054;-80
2022/08/24 03:41:34;;;;;;;10.52;5.75;;;;;;;18.91;81.57;100991.78;5025335;28;20054;-80
2022/08/24 03:44:03;;;;;;;10.93;5.78;;;;;;;19.08;81.27;100992.22;5023529;28;20536;-80
2022/08/24 03:46:35;;;;;;;16.02;6.93;;;;;;;18.96;81.56;100985.88;5030118;28;20064;-82
2022/08/24 03:49:03;;;;;;;12.88;6.10;;;;;;;18.98;81.82;100983.84;5029859;28;20069;-80
2022/08/24 03:51:30;;;;;;;13.98;6.35;;;;;;;18.98;81.89;100995.28;5029063;28;20171;-79
2022/08/24 03:53:59;;;;;;;15.52;6.30;;;;;;;18.86;82.20;100981.81;5025627;28;20049;-80
2022/08/24 03:56:27;;;;;;;15.63;6.63;;;;;;;18.82;82.56;100993.84;5024999;28;20053;-79
2022/08/24 03:58:54;;;;;;;16.92;7.03;;;;;;;18.74;82.91;100982.59;5024752;28;20050;-79
2022/08/24 04:01:21;;;;;;;32.08;7.07;;;;;;;18.70;83.29;100992.78;5024801;28;20045;-79
2022/08/24 04:03:48;;;;;;;18.90;7.18;;;;;;;18.77;82.96;100983.03;5025642;28;20046;-79
2022/08/24 04:06:16;;;;;;;22.67;6.72;;;;;;;18.75;83.13;100995.66;5023862;28;20050;-77
2022/08/24 04:08:44;;;;;;;23.30;6.50;;;;;;;18.66;83.45;100994.22;5025756;28;20522;-79
2022/08/24 04:11:12;;;;;;;25.17;7.32;;;;;;;18.64;83.40;101004.19;5030096;28;20045;-80
2022/08/24 04:13:40;;;;;;;27.55;7.00;;;;;;;18.59;83.87;100998.63;5029649;28;20058;-79
2022/08/24 04:16:11;;;;;;;19.17;6.82;;;;;;;18.52;83.99;101006.56;5029819;28;20056;-79
2022/08/24 04:18:39;;;;;;;14.50;6.28;;;;;;;18.43;84.16;100991.84;5030054;28;20053;-80
2022/08/24 04:21:06;;;;;;;17.60;6.00;;;;;;;18.39;84.17;100995.13;5029393;28;20088;-79
2022/08/24 04:23:34;;;;;;;12.13;5.90;;;;;;;18.39;84.07;100997.78;5029527;28;20046;-79
2022/08/24 04:26:03;;;;;;;15.82;6.40;;;;;;;18.31;84.27;100990.00;5040197;28;20038;-78
2022/08/24 04:28:31;;;;;;;8.40;6.05;;;;;;;18.38;84.38;101009.38;5029345;28;20096;-79
2022/08/24 04:30:59;;;;;;;15.18;6.50;;;;;;;18.34;84.51;101005.50;5029624;28;20424;-78
2022/08/24 04:33:27;;;;;;;15.55;6.30;;;;;;;18.27;84.60;101002.81;5031048;28;20072;-79
2022/08/24 04:35:54;;;;;;;14.00;6.05;;;;;;;18.28;84.49;100998.34;5028992;28;20057;-78
2022/08/24 04:38:20;;;;;;;10.95;6.20;;;;;;;18.29;84.53;101011.38;5022011;28;20050;-78
2022/08/24 04:40:48;;;;;;;15.55;6.10;;;;;;;18.36;84.09;101004.28;5028346;28;20108;-81
2022/08/24 04:43:17;;;;;;;16.75;7.35;;;;;;;18.36;84.00;100996.34;5028105;28;20543;-81
2022/08/24 04:45:45;;;;;;;20.25;7.05;;;;;;;18.38;84.14;101004.91;5027874;28;20069;-79
2022/08/24 04:48:18;;;;;;;17.23;6.30;;;;;;;18.41;84.05;101004.50;5026221;28;20050;-78
2022/08/24 04:50:45;;;;;;;18.02;6.57;;;;;;;18.50;83.59;100997.19;5027079;28;20050;-79
2022/08/24 04:53:13;;;;;;;23.55;6.95;;;;;;;18.48;83.84;100999.22;5026700;28;20518;-78
2022/08/24 04:55:45;;;;;;;17.25;6.88;;;;;;;18.53;84.00;101008.19;5025681;28;20057;-78
2022/08/24 04:58:13;;;;;;;18.05;6.60;;;;;;;18.53;84.00;101007.38;5028386;28;20058;-79
2022/08/24 05:00:40;;;;;;;16.45;6.57;;;;;;;18.66;83.76;101007.47;5027849;28;20108;-79
2022/08/24 05:03:09;;;;;;;28.50;7.85;;;;;;;18.62;83.56;101000.91;5028914;28;20053;-78
2022/08/24 05:05:40;;;;;;;39.28;7.70;;;;;;;18.68;83.37;101016.03;5027837;28;20081;-80
2022/08/24 05:08:07;;;;;;;36.08;8.50;;;;;;;18.70;83.39;101018.47;5028404;28;20113;-79
2022/08/24 05:10:34;;;;;;;32.55;7.57;;;;;;;18.75;82.98;101013.41;5027916;28;20133;-81
2022/08/24 05:13:00;;;;;;;22.83;7.65;;;;;;;18.81;82.71;101021.38;5028573;28;20534;-78
2022/08/24 05:15:27;;;;;;;29.98;7.55;;;;;;;18.83;83.06;101022.00;5028373;28;20047;-79
2022/08/24 05:17:54;;;;;;;26.48;7.30;;;;;;;18.85;82.72;101022.59;5027957;28;20134;-79
2022/08/24 05:20:20;;;;;;;34.17;7.63;;;;;;;19.00;82.54;101024.25;5025162;28;20085;-79
2022/08/24 05:22:54;;;;;;;21.58;7.15;;;;;;;19.07;81.97;101025.91;5023090;28;20073;-78
2022/08/24 05:25:21;;;;;;;21.98;7.78;;;;;;;19.13;81.59;101021.63;5023368;28;20046;-78
2022/08/24 05:27:48;;;;;;;21.33;7.30;;;;;;;19.20;81.58;101023.28;5024276;28;20050;-78
2022/08/24 05:30:15;;;;;;;18.08;7.25;;;;;;;19.22;81.56;101026.53;5022907;28;20537;-77
2022/08/24 05:32:41;;;;;;;16.08;6.90;;;;;;;19.33;81.80;101035.72;5022483;28;20081;-78
2022/08/24 05:35:09;;;;;;;12.65;6.65;;;;;;;19.43;81.62;101036.13;5020546;28;20069;-77
2022/08/24 05:37:37;;;;;;;13.82;7.10;;;;;;;19.55;80.84;101039.81;5020953;28;20081;-79
2022/08/24 05:40:07;;;;;;;16.80;6.63;;;;;;;19.66;80.85;101048.19;5022801;28;20080;-77
2022/08/24 05:42:34;;;;;;;13.23;6.47;;;;;;;19.64;80.39;101047.59;5003965;28;20096;-78
2022/08/24 05:45:01;;;;;;;10.52;6.75;;;;;;;19.70;80.47;101044.94;5003847;28;20049;-79
2022/08/24 05:47:28;;;;;;;11.95;6.82;;;;;;;20.01;79.59;101036.28;5021350;28;20153;-79
2022/08/24 05:49:54;;;;;;;13.75;7.10;;;;;;;20.72;77.43;101033.59;5015683;28;20533;-78
2022/08/24 05:52:25;;;;;;;17.60;8.55;;;;;;;21.73;73.61;101040.69;5017177;28;20050;-78
2022/08/24 05:54:53;;;;;;;17.02;7.03;;;;;;;22.66;70.08;101027.13;5016041;28;20096;-78
2022/08/24 05:57:23;;;;;;;13.48;6.72;;;;;;;23.43;67.82;101022.69;5018996;28;20064;-78
2022/08/24 05:59:52;;;;;;;15.75;7.00;;;;;;;24.20;65.73;101030.53;5016778;28;20054;-80
2022/08/24 06:02:22;;;;;;;15.88;6.78;;;;;;;24.62;63.67;101026.59;5016560;28;20133;-77
2022/08/24 06:04:49;;;;;;;20.35;7.53;;;;;;;25.08;62.41;101017.53;5015988;28;20164;-78
2022/08/24 06:07:17;;;;;;;21.73;7.05;;;;;;;25.58;61.16;101027.41;5022043;28;20042;-77
2022/08/24 06:09:44;;;;;;;17.95;6.93;;;;;;;25.79;60.35;101036.59;5025114;28;20441;-79
2022/08/24 06:12:11;;;;;;;16.35;6.88;;;;;;;26.12;59.28;101041.88;5026077;28;20050;-79
2022/08/24 06:14:39;;;;;;;17.45;7.05;;;;;;;26.23;59.10;101042.81;5022721;28;20486;-76
2022/08/24 06:17:09;;;;;;;20.25;7.32;;;;;;;26.43;57.99;101044.97;5017721;28;20421;-76
2022/08/24 06:19:38;;;;;;;17.55;7.20;;;;;;;26.60;57.95;101037.63;5020784;28;20052;-78
2022/08/24 06:22:07;;;;;;;13.73;7.07;;;;;;;26.99;56.74;101042.88;5021106;28;20108;-78
2022/08/24 06:27:20;;;;;;;16.92;7.20;;;;;;;27.02;55.60;101036.97;5012928;28;20156;-77
2022/08/24 06:29:49;;;;;;;15.30;7.03;;;;;;;27.57;55.41;101043.84;5008757;28;20041;-80
2022/08/24 06:32:16;;;;;;;16.83;7.07;;;;;;;26.95;55.60;101045.22;5019291;28;20067;-78
2022/08/24 06:34:42;;;;;;;11.77;7.35;;;;;;;26.70;56.40;101045.78;5015321;28;20097;-77
2022/08/24 06:37:09;;;;;;;22.98;7.75;;;;;;;25.72;58.21;101046.69;5010944;28;20149;-78
2022/08/24 06:39:36;;;;;;;9.40;6.43;;;;;;;27.38;55.40;101044.28;5021659;28;20084;-78
2022/08/24 06:42:02;;;;;;;11.88;6.65;;;;;;;26.67;56.58;101048.16;5010750;28;20078;-80
2022/08/24 06:44:30;;;;;;;28.67;7.82;;;;;;;26.75;55.83;101045.84;5017575;28;20460;-80
2022/08/24 06:46:58;;;;;;;17.38;6.50;;;;;;;26.41;55.72;101049.78;5019947;28;20046;-78
2022/08/24 06:49:25;;;;;;;9.68;6.78;;;;;;;26.69;54.67;101035.31;5003105;28;20498;-77
2022/08/24 06:51:51;;;;;;;22.33;7.25;;;;;;;27.12;54.04;101038.94;5015150;28;20042;-77
2022/08/24 06:54:19;;;;;;;18.90;6.50;;;;;;;27.64;52.75;101037.22;5011823;28;20111;-78
2022/08/24 06:56:46;;;;;;;18.27;6.63;;;;;;;28.51;50.99;101051.91;5021157;28;20050;-77
2022/08/24 06:59:12;;;;;;;12.23;7.05;;;;;;;28.08;51.06;101059.25;5016158;28;20072;-77
2022/08/24 07:01:39;;;;;;;25.70;7.32;;;;;;;28.36;50.91;101059.91;5015915;28;20093;-78
2022/08/24 07:04:07;;;;;;;13.70;6.35;;;;;;;28.46;49.74;101049.19;5014095;28;20053;-80
2022/08/24 07:06:35;;;;;;;14.18;6.65;;;;;;;28.22;50.35;101058.81;5022141;28;20057;-81
2022/08/24 07:09:02;;;;;;;11.18;6.80;;;;;;;27.93;50.92;101039.53;5018013;28;20117;-78
2022/08/24 07:11:29;;;;;;;9.85;6.60;;;;;;;28.26;50.65;101063.41;5005233;28;20049;-78
2022/08/24 07:13:55;;;;;;;14.38;6.45;;;;;;;28.11;49.12;101059.78;5015983;28;20073;-78
2022/08/24 07:16:22;;;;;;;9.73;6.20;;;;;;;27.99;49.42;101060.81;5017142;28;20049;-79
2022/08/24 07:18:50;;;;;;;12.23;5.82;;;;;;;28.47;49.28;101052.69;5022831;28;20057;-81
2022/08/24 07:21:19;;;;;;;12.65;6.63;;;;;;;27.44;49.77;101059.34;5029002;28;20140;-78
2022/08/24 07:23:46;;;;;;;10.45;6.22;;;;;;;28.19;49.04;101062.00;5023606;28;20088;-79
2022/08/24 07:26:15;;;;;;;9.93;6.50;;;;;;;28.21;48.53;101057.16;5022934;28;20042;-79
2022/08/24 07:28:41;;;;;;;15.43;6.50;;;;;;;29.06;47.16;101053.09;5022502;28;20467;-79
2022/08/24 07:31:09;;;;;;;9.10;6.07;;;;;;;28.93;46.34;101037.47;5020922;28;20069;-80
2022/08/24 07:33:36;;;;;;;9.60;6.40;;;;;;;28.89;47.05;101057.94;5023085;28;20049;-80
2022/08/24 07:36:03;;;;;;;8.88;5.70;;;;;;;28.99;46.99;101063.34;5023656;28;20049;-80
2022/08/24 07:38:31;;;;;;;10.02;5.95;;;;;;;28.01;48.29;101053.28;5020803;28;20065;-80
2022/08/24 07:40:59;;;;;;;9.23;6.35;;;;;;;27.82;49.08;101062.88;5021516;28;20481;-80
2022/08/24 07:43:26;;;;;;;9.98;6.00;;;;;;;28.13;49.00;101066.53;5020704;28;20046;-79
2022/08/24 07:45:53;;;;;;;14.20;6.18;;;;;;;28.73;47.79;101059.78;5019657;28;20042;-79
2022/08/24 07:48:19;;;;;;;13.95;6.40;;;;;;;27.81;49.10;101063.97;5021666;28;20061;-79
2022/08/24 07:50:46;;;;;;;11.02;6.18;;;;;;;28.51;48.42;101067.25;5053204;23;20042;-77
2022/08/24 07:53:13;;;;;;;12.40;5.90;;;;;;;28.31;48.82;101078.75;5013196;28;20053;-78
2022/08/24 07:55:42;;;;;;;15.82;6.40;;;;;;;29.30;46.82;101056.88;5012836;28;20041;-78
2022/08/24 07:58:09;;;;;;;7.60;6.10;;;;;;;29.15;46.84;101066.84;5013036;28;20138;-80
2022/08/24 08:00:36;;;;;;;11.30;6.03;;;;;;;28.96;47.37;101074.66;5016141;28;20506;-80
2022/08/24 08:03:03;;;;;;;13.05;6.07;;;;;;;29.81;45.71;101064.91;5015855;28;20054;-79
2022/08/24 08:05:30;;;;;;;10.95;5.68;;;;;;;29.25;45.93;101070.38;5016478;28;20061;-79
2022/08/24 08:07:56;;;;;;;11.10;5.78;;;;;;;29.91;45.79;101075.69;5017499;28;20053;-80
2022/08/24 08:10:24;;;;;;;16.17;5.78;;;;;;;30.07;45.26;101072.97;5017572;28;20077;-80
2022/08/24 08:12:54;;;;;;;14.48;5.90;;;;;;;30.38;45.50;101077.16;5019003;28;20053;-79
2022/08/24 08:15:21;;;;;;;16.30;5.95;;;;;;;29.95;44.97;101076.75;5017702;28;20077;-79
2022/08/24 08:17:47;;;;;;;12.63;5.97;;;;;;;29.67;46.29;101082.75;5017208;28;20499;-80
2022/08/24 08:20:16;;;;;;;9.90;6.22;;;;;;;29.45;45.99;101076.84;5020865;28;20482;-79
2022/08/24 08:25:27;;;;;;;11.23;5.60;;;;;;;30.86;44.26;101090.97;5017106;28;20131;-79
2022/08/24 08:27:55;;;;;;;17.98;5.55;;;;;;;31.12;44.09;101089.72;5013724;28;20050;-78
2022/08/24 08:30:22;;;;;;;11.05;6.10;;;;;;;31.11;43.33;101090.00;5015447;28;20084;-79
2022/08/24 08:32:49;;;;;;;15.00;5.57;;;;;;;31.07;43.65;101087.06;5015930;28;20081;-79
2022/08/24 08:35:15;;;;;;;12.57;5.50;;;;;;;31.50;43.21;101079.16;5015943;28;20050;-81
2022/08/24 08:37:42;;;;;;;15.13;6.45;;;;;;;31.35;43.41;101075.50;5015318;28;20585;-80
2022/08/24 08:40:18;;;;;;;9.27;5.95;;;;;;;31.44;44.00;101091.09;5014586;28;20049;-80
2022/08/24 08:43:01;;;;;;;10.60;6.07;;;;;;;31.74;43.07;101079.19;5016842;28;20050;-79
2022/08/24 08:45:35;;;;;;;13.48;5.70;;;;;;;31.78;43.23;101080.25;5016003;28;20075;-80
2022/08/24 08:48:33;;;;;;;12.73;5.95;;;;;;;31.34;43.31;101087.41;5016722;28;20119;-81
2022/08/24 08:51:39;;;;;;;18.42;6.90;;;;;;;31.26;44.13;101087.19;4991357;28;20049;-80
2022/08/24 08:54:45;;;;;;;17.17;6.35;;;;;;;30.46;45.42;101075.78;5017526;28;20061;-80
2022/08/24 08:57:27;;;;;;;14.70;5.82;;;;;;;30.29;44.94;101084.22;5009031;28;20137;-79
2022/08/24 09:00:13;;;;;;;14.57;5.80;;;;;;;29.95;45.33;101079.47;5017976;28;20633;-79
2022/08/24 09:03:16;;;;;;;14.13;5.85;;;;;;;30.39;44.24;101076.06;5019824;28;20141;-80
2022/08/24 09:06:10;;;;;;;8.70;5.30;;;;;;;30.88;43.10;101068.00;4999469;28;20060;-78
2022/08/24 09:08:57;;;;;;;10.23;5.55;;;;;;;30.89;43.37;101068.78;5018472;28;20054;-80
2022/08/24 09:11:35;;;;;;;11.15;5.53;;;;;;;30.82;42.41;101071.00;5018242;28;20064;-80
2022/08/24 09:14:25;;;;;;;11.48;5.47;;;;;;;31.40;41.84;101068.41;5020609;28;20054;-81
2022/08/24 09:17:05;;;;;;;9.38;5.68;;;;;;;30.76;42.23;101074.81;5021701;28;20042;-79
2022/08/24 09:19:50;;;;;;;11.20;5.30;;;;;;;30.88;42.27;101064.47;5021224;28;20077;-81
2022/08/24 09:22:19;;;;;;;9.13;5.65;;;;;;;31.24;42.46;101073.94;5021274;28;20581;-80
2022/08/24 09:25:19;;;;;;;10.85;5.70;;;;;;;31.22;41.43;101067.22;5019155;28;20104;-80
2022/08/24 09:28:14;;;;;;;10.73;5.45;;;;;;;30.93;42.15;101065.25;5020177;28;20053;-80
2022/08/24 09:30:58;;;;;;;12.40;5.68;;;;;;;30.32;42.65;101073.69;5014207;28;20050;-81
2022/08/24 09:33:31;;;;;;;13.07;5.55;;;;;;;30.23;43.28;101063.75;5020340;28;20080;-81
2022/08/24 09:36:08;;;;;;;11.10;5.43;;;;;;;30.04;43.51;101061.66;5019786;28;20050;-79
2022/08/24 09:38:58;;;;;;;10.57;6.18;;;;;;;29.46;43.98;101051.50;5018454;28;20100;-80
2022/08/24 09:42:02;;;;;;;13.93;5.55;;;;;;;30.27;43.02;101056.69;5020382;28;20068;-79
2022/08/24 09:45:06;;;;;;;16.20;5.82;;;;;;;29.98;43.71;101054.63;5020907;28;20053;-79
2022/08/24 09:48:03;;;;;;;8.48;5.50;;;;;;;29.68;44.31;101050.13;4998411;28;20053;-81
2022/08/24 09:51:15;;;;;;;12.10;5.65;;;;;;;29.50;44.33;101048.00;5019307;28;20085;-80
2022/08/24 09:54:24;;;;;;;15.05;5.88;;;;;;;29.76;44.54;101047.97;5004917;28;20061;-79
2022/08/24 09:57:08;;;;;;;12.23;5.43;;;;;;;30.12;43.07;101056.78;5019119;28;20069;-78
2022/08/24 09:59:54;;;;;;;11.20;5.32;;;;;;;29.80;42.94;101055.22;5021825;28;20057;-78
2022/08/24 10:02:35;;;;;;;8.05;5.35;;;;;;;29.58;42.99;101043.94;5022223;28;20068;-80
2022/08/24 10:05:12;;;;;;;10.27;5.25;;;;;;;29.89;42.97;101039.28;5021030;28;20529;-79
2022/08/24 10:07:49;;;;;;;8.90;5.97;;;;;;;29.68;43.30;101043.94;5020354;28;20046;-80
2022/08/24 10:10:30;;;;;;;14.35;6.28;;;;;;;30.25;42.97;101031.88;5021241;28;20132;-80
2022/08/24 10:13:12;;;;;;;16.70;6.45;;;;;;;30.41;42.82;101036.09;5017100;28;20534;-79
2022/08/24 10:15:50;;;;;;;12.60;5.60;;;;;;;30.13;42.57;101042.19;5015536;28;20593;-79
2022/08/24 10:18:31;;;;;;;11.90;5.65;;;;;;;30.36;42.95;101047.75;5015690;28;20111;-79
2022/08/24 10:21:09;;;;;;;20.05;6.25;;;;;;;30.40;42.47;101037.19;5015734;28;20553;-79
2022/08/24 10:23:45;;;;;;;12.85;5.45;;;;;;;30.39;42.41;101038.28;5015737;28;20487;-79
2022/08/24 10:26:19;;;;;;;14.95;5.97;;;;;;;30.99;41.21;101030.91;5016484;28;20137;-79
2022/08/24 10:29:16;;;;;;;12.70;5.53;;;;;;;30.85;41.55;101019.09;5016332;28;20058;-79
2022/08/24 10:31:55;;;;;;;12.13;5.18;;;;;;;30.59;42.22;101022.00;5016104;28;20054;-79
2022/08/24 10:34:39;;;;;;;18.88;5.63;;;;;;;30.87;41.42;101017.75;5015260;28;20049;-78
2022/08/24 10:37:38;;;;;;;11.88;5.75;;;;;;;30.45;41.94;101020.16;5016133;28;20592;-78
2022/08/24 10:40:33;;;;;;;11.07;6.07;;;;;;;30.33;42.60;101023.19;5014015;28;20093;-79
2022/08/24 10:43:47;;;;;;;13.70;5.43;;;;;;;30.93;40.44;101016.63;5013495;28;20430;-79
2022/08/24 10:46:39;;;;;;;10.70;5.40;;;;;;;31.24;40.66;101013.66;5013900;28;20076;-78
2022/08/24 10:49:57;;;;;;;12.20;5.45;;;;;;;31.14;42.03;101011.88;5012833;28;20103;-79
2022/08/24 10:53:03;;;;;;;13.27;5.88;;;;;;;31.53;40.43;101014.47;5014864;28;20469;-79
2022/08/24 10:55:43;;;;;;;10.90;5.28;;;;;;;31.58;40.34;101010.91;5017844;28;20530;-79
2022/08/24 10:58:39;;;;;;;14.63;4.90;;;;;;;31.38;40.59;101000.28;5020269;28;20050;-79
2022/08/24 11:01:23;;;;;;;9.27;4.90;;;;;;;31.56;39.49;101002.28;5018790;28;20504;-80
2022/08/24 11:03:54;;;;;;;9.00;4.95;;;;;;;31.33;40.13;101004.66;5017143;28;20054;-78
2022/08/24 11:06:23;;;;;;;13.77;5.60;;;;;;;31.41;39.31;101005.13;5017001;28;20077;-79
2022/08/24 11:08:57;;;;;;;9.50;5.05;;;;;;;31.65;39.60;101006.78;5019569;28;20374;-79
2022/08/24 11:11:28;;;;;;;7.57;4.95;;;;;;;31.82;38.62;101005.53;5017150;28;20074;-79
2022/08/24 11:13:59;;;;;;;7.03;4.90;;;;;;;31.79;39.83;100990.66;5018416;28;20048;-79
2022/08/24 11:16:31;;;;;;;7.00;5.05;;;;;;;31.80;38.29;100992.28;5016826;28;20455;-78
2022/08/24 11:18:58;;;;;;;;;;;;;;;31.35;39.34;100994.38;5012428;28;20093;-77
2022/08/24 11:21:39;;;;;;;8.70;4.47;;;;;;;31.35;39.36;100986.25;5012653;28;19921;-78
2022/08/24 11:24:10;;;;;;;5.80;4.00;;;;;;;31.57;39.96;100984.97;5019541;28;20551;-79
2022/08/24 11:26:50;;;;;;;10.27;4.22;;;;;;;31.98;38.93;100983.41;5019954;28;20050;-78
2022/08/24 11:29:17;;;;;;;8.00;4.18;;;;;;;31.93;38.72;100980.75;5015992;28;20487;-77
2022/08/24 11:31:51;;;;;;;9.98;4.25;;;;;;;32.33;38.29;100978.63;5015323;28;20050;-78
2022/08/24 11:34:31;;;;;;;7.55;4.47;;;;;;;32.02;38.83;100974.69;5020229;28;20077;-79
2022/08/24 11:36:58;;;;;;;10.05;5.10;;;;;;;32.24;38.34;100974.94;5026354;28;20057;-79
2022/08/24 11:39:30;;;;;;;8.50;4.22;;;;;;;31.83;39.10;100967.34;5018742;28;20510;-79
2022/08/24 11:42:02;;;;;;;6.95;4.35;;;;;;;32.15;38.66;100976.66;5017536;28;20133;-78
2022/08/24 11:44:40;;;;;;;6.47;4.25;;;;;;;32.23;37.84;100976.06;5015827;28;20061;-79
2022/08/24 11:47:30;;;;;;;6.50;4.43;;;;;;;32.13;38.80;100968.06;5016526;28;20071;-79
2022/08/24 11:50:02;;;;;;;6.72;4.40;;;;;;;32.11;38.40;100971.06;5018305;28;20332;-81